Flight Track Log - Related Links

Times and Time Zones

All times are in EDT time to prevent confusion due to time zone crossing. See the AAR8731 flight status page for this flight to view local times or setup timezone preferences in your user account.

Time Position Orientation Groundspeed Altitude Reporting Facility
EDT Latitude Longitude Course Direction KTS MPH feet Rate Location/Type
Thu 06:36:00 PM 37.3032 126.8706 166° South  Level Estimated
Thu 06:37:00 PM 37.2181 126.8971 166° South  Level Estimated
Thu 06:38:00 PM 37.1330 126.9236 166° South  Level Estimated
Thu 06:39:00 PM 37.0479 126.9500 166° South  Level Estimated
Thu 06:39:14 PM 37.2550 126.6690 166° South 388 447 17,200  Level FlightAware ADS-B
Thu 06:39:48 PM 37.1940 126.6870 167° South 408 470 18,600 2,197 Climbing FlightAware ADS-B
Thu 06:40:25 PM 37.1260 126.7070 167° South 423 487 19,800 935 Climbing FlightAware ADS-B
Thu 06:41:05 PM 37.0610 126.7260 167° South 423 487 19,800  Level FlightAware ADS-B
Thu 06:41:42 PM 37.0010 126.7430 167° South 423 487 19,800  Level FlightAware ADS-B
Thu 06:42:18 PM 36.9430 126.7600 167° South 423 487 19,800  Level FlightAware ADS-B
Thu 06:42:54 PM 36.8840 126.7770 167° South 423 487 19,800  Level FlightAware ADS-B
Thu 06:43:30 PM 36.8260 126.7940 167° South 423 487 19,800  Level FlightAware ADS-B
Thu 06:44:06 PM 36.7680 126.8110 167° South 423 487 19,800  Level FlightAware ADS-B
Thu 06:46:00 PM 36.6105 126.8783 161° South  Level Estimated
Thu 06:47:00 PM 36.5275 126.9136 161° South  Level Estimated
Thu 06:48:00 PM 36.4446 126.9488 161° South  Level Estimated
Thu 06:49:00 PM 36.3616 126.9840 161° South  Level Estimated
Thu 06:50:00 PM 36.2786 127.0191 161° South  Level Estimated
Thu 06:51:00 PM 36.1956 127.0541 161° South  Level Estimated
Thu 06:52:00 PM 36.1127 127.0890 161° South  Level Estimated
Thu 06:53:00 PM 36.0297 127.1239 161° South  Level Estimated
Thu 06:54:00 PM 35.9467 127.1587 161° South  Level Estimated
Thu 06:55:00 PM 35.8636 127.1934 161° South  Level Estimated
Thu 06:56:00 PM 35.7806 127.2280 161° South  Level Estimated
Thu 06:57:00 PM 35.6976 127.2626 161° South  Level Estimated
Thu 06:58:00 PM 35.6145 127.2971 161° South  Level Estimated
Thu 06:59:00 PM 35.5314 127.3315 161° South  Level Estimated
Thu 07:00:00 PM 35.4484 127.3659 161° South  Level Estimated
Thu 07:01:00 PM 35.3653 127.4002 161° South  Level Estimated
Thu 07:02:00 PM 35.2822 127.4344 161° South  Level Estimated
Thu 07:03:00 PM 35.1991 127.4685 161° South  Level Estimated
Thu 07:04:00 PM 35.1160 127.5026 161° South  Level Estimated
Thu 07:05:00 PM 35.0329 127.5366 161° South  Level Estimated
Thu 07:06:00 PM 34.9498 127.5705 161° South  Level Estimated
Thu 07:07:00 PM 34.8667 127.6044 162° South  Level Estimated
Thu 07:08:00 PM 34.8398 127.6153 162° South  Level Estimated
Thu 07:09:00 PM 34.8398 127.6153 180° South  Level Estimated
Thu 07:10:00 PM 34.8398 127.6153 180° South  Level Estimated
Thu 07:11:00 PM 34.8398 127.6153 180° South  Level Estimated
Thu 07:12:00 PM 34.8398 127.6153 180° South  Level Estimated
Thu 07:13:00 PM 34.8398 127.6153 180° South  Level Estimated
Thu 07:14:00 PM 34.8398 127.6153 180° South  Level Estimated
Thu 07:15:00 PM 34.8398 127.6153 180° South  Level Estimated
Thu 07:16:00 PM 34.8398 127.6153 180° South  Level Estimated
Thu 07:17:00 PM 34.8398 127.6153 180° South  Level Estimated
Thu 07:18:00 PM 34.8398 127.6153 180° South  Level Estimated
Thu 07:19:00 PM 34.8398 127.6153 180° South  Level Estimated
Thu 07:20:00 PM 34.8398 127.6153 180° South  Level Estimated

Login

Don't have an account? Register now (free) for customized features, flight alerts, and more!